Time,TemperatureF,DewpointF,PressureIn,WindDirection,WindDirectionDegrees,WindSpeedMPH,WindSpeedGustMPH,Humidity,HourlyPrecipIn,Conditions,Clouds,dailyrainin,SoftwareType,DateUTC
2013-12-31 00:22:00,37.0,28.0,30.24,WSW,247,0.0,0.0,70,0.00,,,0.00,,2013-12-31 08:22:00,
2013-12-31 00:52:00,37.0,28.0,30.22,West,271,0.0,0.0,71,0.00,,,0.00,,2013-12-31 08:52:00,
2013-12-31 01:21:00,37.0,29.0,30.22,NNW,336,0.0,0.0,74,0.00,,,0.00,,2013-12-31 09:21:00,
2013-12-31 01:53:00,38.0,29.0,30.22,SE,132,0.0,0.0,70,0.00,,,0.00,,2013-12-31 09:53:00,
2013-12-31 02:23:00,36.0,27.0,30.22,WSW,247,0.0,0.0,70,0.00,,,0.00,,2013-12-31 10:23:00,
2013-12-31 02:53:00,37.0,28.0,30.23,West,265,0.0,0.0,71,0.00,,,0.00,,2013-12-31 10:53:00,
2013-12-31 03:22:00,37.0,29.0,30.22,WSW,238,0.0,0.0,72,0.00,,,0.00,,2013-12-31 11:22:00,
2013-12-31 03:52:00,36.0,28.0,30.22,WSW,258,0.0,0.0,73,0.00,,,0.00,,2013-12-31 11:52:00,
2013-12-31 04:21:00,36.0,28.0,30.22,NNW,331,0.0,0.0,73,0.00,,,0.00,,2013-12-31 12:21:00,
2013-12-31 04:52:00,37.0,30.0,30.22,NNW,348,0.0,0.0,75,0.00,,,0.00,,2013-12-31 12:52:00,
2013-12-31 05:21:00,37.0,30.0,30.21,SSE,159,0.0,0.0,75,0.00,,,0.00,,2013-12-31 13:21:00,
2013-12-31 05:52:00,36.0,29.0,30.21,NNW,330,0.0,0.0,77,0.00,,,0.00,,2013-12-31 13:52:00,
2013-12-31 06:22:00,36.0,29.0,30.21,WNW,283,0.0,0.0,76,0.00,,,0.00,,2013-12-31 14:22:00,
2013-12-31 06:52:00,36.0,29.0,30.22,SSE,159,0.0,0.0,77,0.00,,,0.00,,2013-12-31 14:52:00,
2013-12-31 07:21:00,36.0,29.0,30.24,West,279,0.0,0.0,76,0.00,,,0.00,,2013-12-31 15:21:00,
2013-12-31 07:53:00,35.0,29.0,30.24,SSW,202,0.0,0.0,77,0.00,,,0.00,,2013-12-31 15:53:00,
2013-12-31 08:23:00,36.0,30.0,30.24,WNW,292,0.0,0.0,79,0.00,,,0.00,,2013-12-31 16:23:00,
2013-12-31 08:52:00,39.0,33.0,30.24,SE,133,0.0,0.0,78,0.00,,,0.00,,2013-12-31 16:52:00,
2013-12-31 09:22:00,40.0,33.0,30.25,WSW,255,0.0,0.0,75,0.00,,,0.00,,2013-12-31 17:22:00,
2013-12-31 09:53:00,42.0,33.0,30.26,NNW,348,0.0,0.0,70,0.00,,,0.00,,2013-12-31 17:53:00,
2013-12-31 10:21:00,45.0,35.0,30.26,East,97,0.0,0.0,68,0.00,,,0.00,,2013-12-31 18:21:00,
2013-12-31 10:53:00,48.0,35.0,30.26,NNW,339,0.0,0.0,61,0.00,,,0.00,,2013-12-31 18:53:00,
2013-12-31 11:21:00,53.0,35.0,30.25,NNW,333,0.0,0.0,50,0.00,,,0.00,,2013-12-31 19:21:00,
2013-12-31 11:52:00,56.0,36.0,30.23,SE,146,0.0,1.0,47,0.00,,,0.00,,2013-12-31 19:52:00,
2013-12-31 12:21:00,55.0,36.0,30.20,SE,139,2.0,5.0,49,0.00,,,0.00,,2013-12-31 20:21:00,
2013-12-31 12:53:00,56.0,37.0,30.18,SE,141,0.0,0.0,48,0.00,,,0.00,,2013-12-31 20:53:00,
2013-12-31 13:21:00,57.0,37.0,30.18,SSE,149,0.0,2.0,47,0.00,,,0.00,,2013-12-31 21:21:00,
2013-12-31 13:53:00,60.0,39.0,30.16,SE,146,0.0,3.0,46,0.00,,,0.00,,2013-12-31 21:53:00,
2013-12-31 14:22:00,60.0,37.0,30.16,SSE,151,0.0,0.0,42,0.00,,,0.00,,2013-12-31 22:22:00,
2013-12-31 14:53:00,61.0,37.0,30.16,SE,144,2.0,3.0,41,0.00,,,0.00,,2013-12-31 22:53:00,
2013-12-31 15:21:00,61.0,36.0,30.15,SW,217,0.0,2.0,40,0.00,,,0.00,,2013-12-31 23:21:00,
2013-12-31 15:53:00,61.0,38.0,30.15,South,181,0.0,3.0,42,0.00,,,0.00,,2013-12-31 23:53:00,
2013-12-31 16:21:00,61.0,38.0,30.15,South,191,0.0,0.0,42,0.00,,,0.00,,2014-01-01 00:21:00,
2013-12-31 16:52:00,60.0,37.0,30.15,SSE,163,0.0,0.0,43,0.00,,,0.00,,2014-01-01 00:52:00,
2013-12-31 17:21:00,58.0,36.0,30.14,SSE,157,0.0,0.0,43,0.00,,,0.00,,2014-01-01 01:21:00,
2013-12-31 17:52:00,55.0,35.0,30.16,ESE,106,0.0,0.0,47,0.00,,,0.00,,2014-01-01 01:52:00,
2013-12-31 18:22:00,52.0,34.0,30.15,West,268,0.0,0.0,51,0.00,,,0.00,,2014-01-01 02:22:00,
2013-12-31 18:52:00,48.0,33.0,30.16,WNW,294,0.0,0.0,56,0.00,,,0.00,,2014-01-01 02:52:00,
2013-12-31 19:22:00,46.0,33.0,30.16,WSW,237,0.0,0.0,61,0.00,,,0.00,,2014-01-01 03:22:00,
2013-12-31 19:53:00,44.0,33.0,30.16,WSW,255,0.0,0.0,65,0.00,,,0.00,,2014-01-01 03:53:00,
2013-12-31 20:23:00,43.0,32.0,30.16,WNW,292,0.0,0.0,65,0.00,,,0.00,,2014-01-01 04:23:00,
2013-12-31 20:53:00,43.0,31.0,30.16,WSW,247,0.0,0.0,63,0.00,,,0.00,,2014-01-01 04:53:00,
2013-12-31 21:22:00,41.0,31.0,30.17,WSW,247,0.0,0.0,66,0.00,,,0.00,,2014-01-01 05:22:00,
2013-12-31 21:52:00,40.0,31.0,30.17,NW,322,0.0,0.0,71,0.00,,,0.00,,2014-01-01 05:52:00,
2013-12-31 22:22:00,40.0,30.0,30.17,WSW,239,0.0,0.0,68,0.00,,,0.00,,2014-01-01 06:22:00,
2013-12-31 22:52:00,39.0,30.0,30.18,West,279,0.0,0.0,69,0.00,,,0.00,,2014-01-01 06:52:00,
2013-12-31 23:52:00,37.0,29.0,30.19,WNW,292,0.0,0.0,72,0.00,,,0.00,,2014-01-01 07:52:00,